^^
Your Local Weather - Clay, NY Station Historical Data
Daily Summary for January 22, 2017 Units:  Metric    English   Both
« Previous Day
Next Day »
Daily Weekly Monthly Yearly Custom
  High: Low: Average:
Temperature: 11 °C 0.7 °C 5.6 °C
Dew Point: 7.1 °C -0.3 °C 3.9 °C
Humidity: 95% 75% 90%
Wind Speed: 6.4km/h 0km/h 1.6km/h
Wind Gust: 11.3km/h - -
Wind- - East
Pressure: 1006.3 hPa 1004.3 hPa -
Precipitation: 0 mm    
Historical Graphs
 
 
Tabular Data for January 22, 2017
Time Temperature Dew Point Pressure Wind Wind Speed Wind Gust Humidity Rainfall Rate (Hourly) solar
00:04 5.7 °C 4.4 °C 1004.6 hPa ESE 1.6 km/h 3.2 km/h 92% 0 mm 0 W/m2
00:10 5.7 °C 4.4 °C 1004.6 hPa Calm     92% 0 mm 0 W/m2
00:16 5.6 °C 4.4 °C 1004.6 hPa Calm     92% 0 mm 0 W/m2
00:22 5.5 °C 4.3 °C 1004.3 hPa Calm   1.6 km/h 92% 0 mm 0 W/m2
00:28 5.3 °C 4.1 °C 1004.6 hPa Calm   1.6 km/h 92% 0 mm 0 W/m2
00:34 5.3 °C 4.1 °C 1004.6 hPa Calm     92% 0 mm 0 W/m2
00:40 5.2 °C 4 °C 1004.6 hPa Calm     92% 0 mm 0 W/m2
00:46 5.1 °C 3.9 °C 1004.6 hPa Calm     92% 0 mm 0 W/m2
00:52 5.1 °C 3.9 °C 1004.6 hPa Calm     92% 0 mm 0 W/m2
00:58 5.2 °C 4.1 °C 1004.6 hPa NE 1.6 km/h 3.2 km/h 93% 0 mm 0 W/m2
01:04 5.2 °C 4.2 °C 1004.6 hPa NE 1.6 km/h 3.2 km/h 93% 0 mm 0 W/m2
01:10 5.3 °C 4.2 °C 1004.6 hPa ENE 1.6 km/h 1.6 km/h 93% 0 mm 0 W/m2
01:16 5.3 °C 4.3 °C 1004.6 hPa ENE 1.6 km/h 3.2 km/h 93% 0 mm 0 W/m2
01:22 5.4 °C 4.3 °C 1004.6 hPa ENE 1.6 km/h 3.2 km/h 93% 0 mm 0 W/m2
01:28 5.4 °C 4.4 °C 1004.6 hPa East 1.6 km/h 4.8 km/h 93% 0 mm 0 W/m2
01:34 5.4 °C 4.4 °C 1004.6 hPa Calm   1.6 km/h 93% 0 mm 0 W/m2
01:40 5.4 °C 4.4 °C 1004.6 hPa Calm     93% 0 mm 0 W/m2
01:46 5.6 °C 4.5 °C 1004.6 hPa ESE 1.6 km/h 1.6 km/h 93% 0 mm 0 W/m2
01:52 5.6 °C 4.5 °C 1004.6 hPa ESE 1.6 km/h 4.8 km/h 93% 0 mm 0 W/m2
01:58 5.6 °C 4.5 °C 1004.6 hPa Calm   4.8 km/h 93% 0 mm 0 W/m2
02:04 5.6 °C 4.3 °C 1004.6 hPa Calm     92% 0 mm 0 W/m2
02:10 5.6 °C 4.3 °C 1004.6 hPa Calm     92% 0 mm 0 W/m2
02:16 5.6 °C 4.3 °C 1004.6 hPa Calm   1.6 km/h 92% 0 mm 0 W/m2
02:22 5.6 °C 4.4 °C 1004.6 hPa Calm     92% 0 mm 0 W/m2
02:28 5.6 °C 4.3 °C 1004.6 hPa Calm     92% 0 mm 0 W/m2
02:34 5.6 °C 4.3 °C 1004.6 hPa Calm     92% 0 mm 0 W/m2
02:40 5.6 °C 4.3 °C 1004.6 hPa Calm     92% 0 mm 0 W/m2
02:46 5.6 °C 4.4 °C 1004.6 hPa Calm     92% 0 mm 0 W/m2
02:52 5.3 °C 4.1 °C 1004.6 hPa Calm     92% 0 mm 0 W/m2
02:58 5.1 °C 3.9 °C 1004.6 hPa Calm     92% 0 mm 0 W/m2
03:04 5.1 °C 3.9 °C 1004.6 hPa Calm     92% 0 mm 0 W/m2
03:10 4.9 °C 3.8 °C 1004.6 hPa Calm     92% 0 mm 0 W/m2
03:16 4.9 °C 3.7 °C 1004.6 hPa Calm     92% 0 mm 0 W/m2
03:22 4.9 °C 3.7 °C 1004.6 hPa Calm     92% 0 mm 0 W/m2
03:28 4.8 °C 3.8 °C 1004.3 hPa Calm     93% 0 mm 0 W/m2
03:34 4.7 °C 3.5 °C 1004.3 hPa Calm     92% 0 mm 0 W/m2
03:40 4.3 °C 3.2 °C 1004.3 hPa Calm     92% 0 mm 0 W/m2
03:46 4 °C 2.8 °C 1004.3 hPa Calm     92% 0 mm 0 W/m2
03:52 3.9 °C 2.7 °C 1004.3 hPa Calm     92% 0 mm 0 W/m2
03:58 3.7 °C 2.7 °C 1004.3 hPa Calm     93% 0 mm 0 W/m2
04:04 3.4 °C 2.2 °C 1004.3 hPa Calm     92% 0 mm 0 W/m2
04:10 3.3 °C 2.1 °C 1004.3 hPa Calm     92% 0 mm 0 W/m2
04:16 3.1 °C 2.1 °C 1004.3 hPa Calm     93% 0 mm 0 W/m2
04:22 3.1 °C 2.1 °C 1004.3 hPa Calm     93% 0 mm 0 W/m2
04:28 2.8 °C 1.8 °C 1004.3 hPa Calm     93% 0 mm 0 W/m2
04:34 2.6 °C 1.6 °C 1004.3 hPa Calm     93% 0 mm 0 W/m2
04:40 2.6 °C 1.6 °C 1004.3 hPa Calm     93% 0 mm 0 W/m2
04:46 2.8 °C 1.8 °C 1004.3 hPa Calm     93% 0 mm 0 W/m2
04:52 2.7 °C 1.7 °C 1004.3 hPa Calm     93% 0 mm 0 W/m2
04:58 2.6 °C 1.6 °C 1004.3 hPa Calm     93% 0 mm 0 W/m2
05:04 2.4 °C 1.4 °C 1004.3 hPa Calm     93% 0 mm 0 W/m2
05:10 2.2 °C 1.2 °C 1004.3 hPa Calm     93% 0 mm 0 W/m2
05:16 2.1 °C 1.1 °C 1004.3 hPa Calm     93% 0 mm 0 W/m2
05:22 1.8 °C 0.8 °C 1004.3 hPa Calm     93% 0 mm 0 W/m2
05:29 1.7 °C 0.7 °C 1004.3 hPa Calm     93% 0 mm 0 W/m2
05:34 1.5 °C 0.5 °C 1004.3 hPa Calm     93% 0 mm 0 W/m2
05:40 1.4 °C 0.4 °C 1004.3 hPa Calm     93% 0 mm 0 W/m2
05:46 1.3 °C 0.3 °C 1004.3 hPa Calm     93% 0 mm 0 W/m2
05:52 1.3 °C 0.3 °C 1004.3 hPa Calm     93% 0 mm 0 W/m2
05:58 1.2 °C 0.2 °C 1004.6 hPa Calm     93% 0 mm 0 W/m2
06:04 1.3 °C 0.3 °C 1004.6 hPa Calm     93% 0 mm 0 W/m2
06:10 1.3 °C 0.3 °C 1004.6 hPa Calm     93% 0 mm 0 W/m2
06:16 1.2 °C 0.2 °C 1004.6 hPa Calm     93% 0 mm 0 W/m2
06:22 1.1 °C 0.1 °C 1004.6 hPa Calm     93% 0 mm 0 W/m2
06:28 0.9 °C -0.1 °C 1004.6 hPa Calm     93% 0 mm 0 W/m2
06:34 0.8 °C -0.2 °C 1004.6 hPa Calm     93% 0 mm 0 W/m2
06:40 0.8 °C -0.2 °C 1004.6 hPa Calm     93% 0 mm 0 W/m2
06:46 0.7 °C -0.3 °C 1004.6 hPa Calm     93% 0 mm 0 W/m2
06:52 0.7 °C -0.3 °C 1004.6 hPa Calm     93% 0 mm 0 W/m2
06:58 0.9 °C 0.1 °C 1004.6 hPa Calm     94% 0 mm 0 W/m2
07:04 1 °C 0.2 °C 1005 hPa Calm     94% 0 mm 0 W/m2
07:10 1.2 °C 0.3 °C 1004.6 hPa Calm     94% 0 mm 0 W/m2
07:16 1.1 °C 0.2 °C 1005 hPa Calm     94% 0 mm 0 W/m2
07:22 1.1 °C 0.2 °C 1005 hPa Calm     94% 0 mm 0 W/m2
07:28 1 °C 0.2 °C 1005 hPa Calm     94% 0 mm 0 W/m2
07:34 0.9 °C 0.1 °C 1005 hPa Calm     94% 0 mm 7 W/m2
07:40 0.9 °C 0.1 °C 1005 hPa Calm     94% 0 mm 11 W/m2
07:46 0.9 °C 0.1 °C 1005 hPa Calm     94% 0 mm 16 W/m2
07:52 0.9 °C 0.1 °C 1005 hPa Calm     94% 0 mm 26 W/m2
07:58 1 °C 0.2 °C 1005 hPa Calm     94% 0 mm 35 W/m2
08:04 1 °C 0.2 °C 1004.6 hPa Calm     94% 0 mm 44 W/m2
08:10 1 °C 0.2 °C 1004.6 hPa Calm     94% 0 mm 56 W/m2
08:16 1.1 °C 0.3 °C 1004.6 hPa Calm     94% 0 mm 65 W/m2
08:22 1.2 °C 0.3 °C 1004.6 hPa Calm     94% 0 mm 67 W/m2
08:28 1.3 °C 0.5 °C 1004.6 hPa Calm     94% 0 mm 49 W/m2
08:34 1.5 °C 0.7 °C 1004.6 hPa Calm     94% 0 mm 54 W/m2
08:40 2 °C 1.1 °C 1004.6 hPa Calm   3.2 km/h 94% 0 mm 60 W/m2
08:46 2.7 °C 1.8 °C 1004.3 hPa ENE 1.6 km/h 3.2 km/h 94% 0 mm 77 W/m2
08:52 3.4 °C 2.5 °C 1004.3 hPa ENE 1.6 km/h 3.2 km/h 94% 0 mm 67 W/m2
08:58 3.6 °C 2.8 °C 1004.3 hPa ENE 1.6 km/h 4.8 km/h 95% 0 mm 77 W/m2
09:04 3.8 °C 3.1 °C 1004.6 hPa ENE 1.6 km/h 1.6 km/h 95% 0 mm 53 W/m2
09:10 4.1 °C 3.3 °C 1004.6 hPa Calm     95% 0 mm 62 W/m2
09:16 4.3 °C 3.6 °C 1005 hPa ESE 1.6 km/h 1.6 km/h 95% 0 mm 86 W/m2
09:22 4.5 °C 3.8 °C 1005 hPa ESE 1.6 km/h 1.6 km/h 95% 0 mm 95 W/m2
09:28 4.6 °C 3.9 °C 1005.3 hPa East 1.6 km/h 3.2 km/h 95% 0 mm 90 W/m2
09:34 4.7 °C 3.9 °C 1005.3 hPa SE 3.2 km/h 3.2 km/h 95% 0 mm 113 W/m2
09:40 4.7 °C 4 °C 1005.6 hPa ESE 1.6 km/h 1.6 km/h 95% 0 mm 70 W/m2
09:46 4.8 °C 4.1 °C 1005.6 hPa Calm   1.6 km/h 95% 0 mm 98 W/m2
09:52 4.8 °C 4.1 °C 1006.3 hPa Calm     95% 0 mm 95 W/m2
09:58 4.8 °C 4.1 °C 1006.3 hPa SE 1.6 km/h 3.2 km/h 95% 0 mm 91 W/m2
10:04 4.9 °C 4.2 °C 1006.3 hPa Calm   1.6 km/h 95% 0 mm 90 W/m2
10:10 4.9 °C 4.2 °C 1006.3 hPa Calm   3.2 km/h 95% 0 mm 100 W/m2
10:16 5.1 °C 4.4 °C 1006.3 hPa North 1.6 km/h 3.2 km/h 95% 0 mm 132 W/m2
10:22 5.2 °C 4.4 °C 1006.3 hPa North 1.6 km/h 4.8 km/h 95% 0 mm 118 W/m2
10:28 5.2 °C 4.4 °C 1006.3 hPa North 1.6 km/h 8 km/h 95% 0 mm 181 W/m2
10:34 5.1 °C 4.4 °C 1006.3 hPa North 3.2 km/h 4.8 km/h 95% 0 mm 185 W/m2
10:42 5.1 °C 4.3 °C 1006.3 hPa NE 3.2 km/h 3.2 km/h 95% 0 mm 206 W/m2
10:48 5.1 °C 4.3 °C 1006.3 hPa NNW 3.2 km/h 4.8 km/h 95% 0 mm 155 W/m2
10:54 5.1 °C 4.4 °C 1006.3 hPa East 3.2 km/h 3.2 km/h 95% 0 mm 130 W/m2
11:00 5.2 °C 4.4 °C 1006.3 hPa ENE 3.2 km/h 3.2 km/h 95% 0 mm 151 W/m2
11:06 5.3 °C 4.6 °C 1006.3 hPa ENE 1.6 km/h 3.2 km/h 95% 0 mm 139 W/m2
11:12 5.6 °C 4.8 °C 1006.3 hPa East 1.6 km/h 3.2 km/h 95% 0 mm 114 W/m2
11:18 5.6 °C 4.9 °C 1006.3 hPa ENE 3.2 km/h 3.2 km/h 95% 0 mm 100 W/m2
11:24 5.7 °C 5 °C 1006.3 hPa ESE 3.2 km/h 4.8 km/h 95% 0 mm 160 W/m2
11:30 6.1 °C 5.3 °C 1006 hPa ENE 3.2 km/h 4.8 km/h 95% 0 mm 202 W/m2
11:36 6.3 °C 5.6 °C 1006 hPa East 3.2 km/h 4.8 km/h 95% 0 mm 200 W/m2
11:42 6.6 °C 5.8 °C 1006 hPa NE 1.6 km/h 3.2 km/h 95% 0 mm 185 W/m2
11:48 6.8 °C 6.1 °C 1006 hPa NE 1.6 km/h 3.2 km/h 95% 0 mm 171 W/m2
11:54 6.9 °C 6 °C 1006 hPa ENE 1.6 km/h 4.8 km/h 94% 0 mm 144 W/m2
12:00 7.1 °C 6.1 °C 1005.6 hPa ENE 3.2 km/h 4.8 km/h 93% 0 mm 151 W/m2
12:06 7.3 °C 6.1 °C 1005.6 hPa ENE 3.2 km/h 4.8 km/h 92% 0 mm 163 W/m2
12:12 7.6 °C 6.2 °C 1005.6 hPa SSE 1.6 km/h 6.4 km/h 91% 0 mm 179 W/m2
12:18 7.8 °C 6.1 °C 1005.6 hPa ENE 1.6 km/h 6.4 km/h 89% 0 mm 214 W/m2
12:24 7.9 °C 6.1 °C 1005.6 hPa ENE 3.2 km/h 3.2 km/h 88% 0 mm 192 W/m2
12:30 8.1 °C 6 °C 1005.6 hPa NE 1.6 km/h 1.6 km/h 87% 0 mm 190 W/m2
12:36 8.2 °C 6.2 °C 1005.3 hPa NE 1.6 km/h 3.2 km/h 87% 0 mm 214 W/m2
12:42 8.6 °C 6.4 °C 1005.3 hPa North 1.6 km/h 1.6 km/h 86% 0 mm 218 W/m2
12:48 8.7 °C 6.3 °C 1005.3 hPa NE 3.2 km/h 4.8 km/h 85% 0 mm 202 W/m2
12:54 8.7 °C 6.2 °C 1005 hPa North 3.2 km/h 6.4 km/h 84% 0 mm 169 W/m2
13:00 8.8 °C 6.2 °C 1005 hPa NNE 3.2 km/h 6.4 km/h 84% 0 mm 139 W/m2
13:06 8.7 °C 6.2 °C 1004.6 hPa North 3.2 km/h 6.4 km/h 84% 0 mm 158 W/m2
13:12 8.8 °C 6.2 °C 1004.6 hPa NNE 3.2 km/h 6.4 km/h 84% 0 mm 220 W/m2
13:18 8.8 °C 6.2 °C 1004.6 hPa ENE 6.4 km/h 8 km/h 84% 0 mm 330 W/m2
13:24 9.3 °C 6.6 °C 1004.6 hPa East 6.4 km/h 11.3 km/h 83% 0 mm 515 W/m2
13:30 9.2 °C 6.3 °C 1004.3 hPa North 6.4 km/h 6.4 km/h 82% 0 mm 399 W/m2
13:36 9.2 °C 6.3 °C 1004.6 hPa NE 6.4 km/h 6.4 km/h 82% 0 mm 367 W/m2
13:42 9.3 °C 6.4 °C 1004.3 hPa NE 6.4 km/h 6.4 km/h 82% 0 mm 325 W/m2
13:50 9.2 °C 6.3 °C 1004.3 hPa East 6.4 km/h 6.4 km/h 82% 0 mm 229 W/m2
13:56 9.3 °C 6.4 °C 1004.3 hPa East 4.8 km/h 9.7 km/h 82% 0 mm 195 W/m2
14:02 9.2 °C 6.1 °C 1004.3 hPa ENE 6.4 km/h 9.7 km/h 81% 0 mm 174 W/m2
14:08 9.4 °C 6.5 °C 1004.3 hPa East 6.4 km/h 9.7 km/h 82% 0 mm 223 W/m2
14:14 9.6 °C 6.4 °C 1004.3 hPa East 3.2 km/h 4.8 km/h 81% 0 mm 237 W/m2
14:20 9.6 °C 6.3 °C 1004.3 hPa NE 3.2 km/h 3.2 km/h 80% 0 mm 234 W/m2
14:26 9.8 °C 6.5 °C 1004.3 hPa NNE 3.2 km/h 6.4 km/h 80% 0 mm 227 W/m2
14:32 9.9 °C 6.6 °C 1004.3 hPa NE 3.2 km/h 4.8 km/h 80% 0 mm 292 W/m2
14:38 10.4 °C 7.1 °C 1004.3 hPa ENE 3.2 km/h 4.8 km/h 80% 0 mm 334 W/m2
14:44 10.6 °C 6.9 °C 1004.3 hPa NNE 3.2 km/h 4.8 km/h 78% 0 mm 323 W/m2
14:50 10.4 °C 6.6 °C 1004.3 hPa East 3.2 km/h 3.2 km/h 77% 0 mm 120 W/m2
14:56 10.4 °C 6.7 °C 1004.3 hPa NNE 3.2 km/h 3.2 km/h 78% 0 mm 169 W/m2
15:02 10.6 °C 6.9 °C 1004.3 hPa East 1.6 km/h 4.8 km/h 78% 0 mm 207 W/m2
15:08 10.8 °C 6.8 °C 1004.3 hPa NNE 1.6 km/h 9.7 km/h 76% 0 mm 202 W/m2
15:14 10.8 °C 6.9 °C 1004.3 hPa NE 3.2 km/h 3.2 km/h 77% 0 mm 218 W/m2
15:20 11 °C 6.9 °C 1004.3 hPa North 3.2 km/h 3.2 km/h 76% 0 mm 200 W/m2
15:26 10.9 °C 6.6 °C 1004.6 hPa NE 3.2 km/h 4.8 km/h 75% 0 mm 76 W/m2
15:32 10.6 °C 6.7 °C 1004.6 hPa NE 3.2 km/h 3.2 km/h 77% 0 mm 58 W/m2
15:38 10.3 °C 6.4 °C 1004.6 hPa East 3.2 km/h 9.7 km/h 77% 0 mm 62 W/m2
15:44 10.2 °C 6.5 °C 1004.6 hPa NNE 3.2 km/h 4.8 km/h 78% 0 mm 46 W/m2
15:50 10.1 °C 6.4 °C 1004.6 hPa NE 3.2 km/h 3.2 km/h 78% 0 mm 40 W/m2
15:56 10.1 °C 6.4 °C 1004.6 hPa NE 3.2 km/h 3.2 km/h 78% 0 mm 35 W/m2
16:02 9.9 °C 6.4 °C 1004.6 hPa NE 3.2 km/h 3.2 km/h 79% 0 mm 35 W/m2
16:08 9.8 °C 6.3 °C 1004.6 hPa ENE 3.2 km/h 4.8 km/h 79% 0 mm 32 W/m2
16:14 9.7 °C 6.2 °C 1005 hPa NE 3.2 km/h 4.8 km/h 79% 0 mm 28 W/m2
16:20 9.6 °C 6.3 °C 1005 hPa East 3.2 km/h 3.2 km/h 80% 0 mm 23 W/m2
16:26 9.5 °C 6.2 °C 1005 hPa SE 3.2 km/h 3.2 km/h 80% 0 mm 21 W/m2
16:32 9.4 °C 6.2 °C 1005 hPa East 1.6 km/h 3.2 km/h 80% 0 mm 18 W/m2
16:38 9.3 °C 6.1 °C 1005.3 hPa ENE 1.6 km/h 4.8 km/h 80% 0 mm 12 W/m2
16:44 9.3 °C 6.2 °C 1005.3 hPa ENE 1.6 km/h 3.2 km/h 81% 0 mm 9 W/m2
16:50 9.2 °C 6.1 °C 1005.3 hPa ENE 3.2 km/h 3.2 km/h 81% 0 mm 9 W/m2
16:56 9.1 °C 6 °C 1005.3 hPa East 3.2 km/h 4.8 km/h 81% 0 mm 7 W/m2
17:02 8.9 °C 6 °C 1005.3 hPa East 1.6 km/h 1.6 km/h 82% 0 mm 0 W/m2
17:08 8.8 °C 5.9 °C 1005 hPa NE 3.2 km/h 4.8 km/h 82% 0 mm 0 W/m2
17:14 8.7 °C 5.9 °C 1005 hPa ENE 3.2 km/h 11.3 km/h 83% 0 mm 0 W/m2
17:20 8.5 °C 5.8 °C 1005.3 hPa East 3.2 km/h 8 km/h 83% 0 mm 0 W/m2
17:26 8.3 °C 5.7 °C 1005.3 hPa East 3.2 km/h 11.3 km/h 84% 0 mm 0 W/m2
17:32 8.2 °C 5.8 °C 1005 hPa ENE 6.4 km/h 8 km/h 85% 0 mm 0 W/m2
17:38 7.9 °C 5.6 °C 1005 hPa ENE 6.4 km/h 8 km/h 85% 0 mm 0 W/m2
17:44 7.7 °C 5.5 °C 1005 hPa East 4.8 km/h 8 km/h 86% 0 mm 0 W/m2
17:50 7.5 °C 5.3 °C 1005 hPa ESE 4.8 km/h 4.8 km/h 86% 0 mm 0 W/m2
17:56 7.3 °C 5.3 °C 1005.3 hPa East 4.8 km/h 6.4 km/h 87% 0 mm 0 W/m2
Country Meadow, Clay, NY, USA
Compliments of Weather Underground - 2 mb